createdAt,value
2018-07-06T00:00:14.103Z,22.70
2018-07-06T00:02:53.772Z,22.70
2018-07-06T00:05:33.667Z,22.70
2018-07-06T00:10:47.108Z,22.70
2018-07-06T00:16:00.420Z,22.60
2018-07-06T00:18:40.238Z,22.60
2018-07-06T00:21:20.867Z,22.60
2018-07-06T00:24:00.665Z,22.60
2018-07-06T00:26:40.756Z,22.60
2018-07-06T00:29:20.608Z,22.60
2018-07-06T00:32:00.514Z,22.50
2018-07-06T00:34:40.108Z,22.50
2018-07-06T00:37:19.789Z,22.50
2018-07-06T00:39:59.332Z,22.40
2018-07-06T00:42:38.952Z,22.40
2018-07-06T00:45:18.547Z,22.40
2018-07-06T00:50:31.832Z,22.50
2018-07-06T00:53:11.578Z,22.40
2018-07-06T00:55:51.468Z,22.40
2018-07-06T00:58:31.252Z,22.50
2018-07-06T01:01:10.893Z,22.50
2018-07-06T01:03:50.435Z,22.40
2018-07-06T01:06:30.261Z,22.40
2018-07-06T01:09:10.092Z,22.40
2018-07-06T01:11:49.907Z,22.40
2018-07-06T01:14:29.632Z,22.30
2018-07-06T01:17:14.907Z,22.30
2018-07-06T01:19:54.634Z,22.30
2018-07-06T01:22:34.580Z,22.40
2018-07-06T01:25:14.103Z,22.30
2018-07-06T01:27:53.761Z,22.40
2018-07-06T01:30:33.427Z,22.40
2018-07-06T01:33:13.138Z,22.40
2018-07-06T01:35:52.722Z,22.40
2018-07-06T01:38:32.718Z,22.40
2018-07-06T01:41:12.329Z,22.50
2018-07-06T01:43:52.115Z,22.50
2018-07-06T01:46:31.968Z,22.50
2018-07-06T01:49:11.695Z,22.50
2018-07-06T01:51:51.504Z,22.50
2018-07-06T01:54:31.311Z,22.50
2018-07-06T01:57:10.938Z,22.40
2018-07-06T01:59:50.704Z,22.40
2018-07-06T02:02:30.452Z,22.40
2018-07-06T02:05:10.253Z,22.40
2018-07-06T02:07:49.863Z,22.40
2018-07-06T02:10:29.664Z,22.40
2018-07-06T02:13:09.438Z,22.40
2018-07-06T02:15:49.283Z,22.40
2018-07-06T02:18:28.957Z,22.30
2018-07-06T02:21:08.587Z,22.40
2018-07-06T02:23:48.469Z,22.40
2018-07-06T02:26:28.091Z,22.40
2018-07-06T02:29:07.786Z,22.40
2018-07-06T02:31:47.756Z,22.40
2018-07-06T02:34:34.741Z,22.40
2018-07-06T02:37:14.378Z,22.40
2018-07-06T02:39:53.994Z,22.30
2018-07-06T02:42:33.705Z,22.30
2018-07-06T02:45:13.405Z,22.30
2018-07-06T02:47:53.044Z,22.30
2018-07-06T02:50:32.690Z,22.30
2018-07-06T02:53:12.389Z,22.30
2018-07-06T02:55:52.183Z,22.20
2018-07-06T02:58:31.956Z,22.20
2018-07-06T03:01:11.605Z,22.20
2018-07-06T03:03:51.380Z,22.20
2018-07-06T03:06:31.159Z,22.10
2018-07-06T03:09:10.853Z,22.10
2018-07-06T03:11:50.776Z,22.10
2018-07-06T03:14:30.320Z,22.10
2018-07-06T03:17:09.944Z,22.00
2018-07-06T03:19:49.511Z,22.00
2018-07-06T03:22:29.322Z,21.90
2018-07-06T03:25:09.126Z,21.90
2018-07-06T03:27:48.943Z,21.90
2018-07-06T03:30:28.781Z,21.90
2018-07-06T03:33:08.642Z,21.90
2018-07-06T03:35:48.392Z,21.90
2018-07-06T03:38:28.042Z,21.90
2018-07-06T03:41:07.905Z,21.90
2018-07-06T03:43:47.783Z,22.00
2018-07-06T03:46:27.407Z,22.00
2018-07-06T03:49:07.104Z,22.00
2018-07-06T03:51:46.894Z,22.00
2018-07-06T03:54:26.817Z,22.00
2018-07-06T03:57:06.303Z,22.00
2018-07-06T03:59:45.998Z,22.00
2018-07-06T04:02:25.747Z,22.00
2018-07-06T04:05:05.518Z,22.00
2018-07-06T04:07:45.216Z,21.90
2018-07-06T04:10:24.903Z,21.90
2018-07-06T04:13:04.710Z,21.90
2018-07-06T04:15:44.475Z,21.90
2018-07-06T04:18:24.106Z,21.90
2018-07-06T04:21:03.957Z,21.90
2018-07-06T04:23:43.573Z,21.90
2018-07-06T04:26:23.266Z,21.80
2018-07-06T04:29:02.873Z,21.80
2018-07-06T04:31:42.533Z,21.70
2018-07-06T04:34:22.571Z,21.70
2018-07-06T04:37:02.275Z,21.70
2018-07-06T04:39:41.850Z,21.70
2018-07-06T04:42:21.401Z,21.70
2018-07-06T04:45:01.025Z,21.70
2018-07-06T04:47:40.870Z,21.70
2018-07-06T04:50:20.630Z,21.70
2018-07-06T04:53:00.424Z,21.70
2018-07-06T04:55:40.157Z,21.70
2018-07-06T04:58:19.788Z,21.70
2018-07-06T05:00:59.457Z,21.70
2018-07-06T05:03:39.379Z,21.60
2018-07-06T05:06:19.062Z,21.60
2018-07-06T05:08:58.809Z,21.60
2018-07-06T05:11:38.639Z,21.60
2018-07-06T05:14:18.435Z,21.60
2018-07-06T05:16:58.198Z,21.60
2018-07-06T05:19:38.120Z,21.70
2018-07-06T05:22:17.762Z,21.70
2018-07-06T05:24:57.390Z,21.70
2018-07-06T05:27:37.071Z,21.70
2018-07-06T05:30:16.839Z,21.80
2018-07-06T05:32:56.682Z,21.80
2018-07-06T05:35:36.523Z,21.80
2018-07-06T05:38:16.602Z,21.80
2018-07-06T05:40:56.199Z,21.90
2018-07-06T05:43:35.912Z,21.90
2018-07-06T05:46:15.754Z,21.90
2018-07-06T05:48:55.573Z,21.80
2018-07-06T05:51:35.282Z,21.80
2018-07-06T05:54:15.216Z,21.90
2018-07-06T05:56:54.984Z,21.80
2018-07-06T05:59:34.676Z,21.80
2018-07-06T06:02:14.458Z,21.90
2018-07-06T06:04:54.475Z,21.90
2018-07-06T06:07:23.639Z,21.90
2018-07-06T06:09:52.302Z,21.90
2018-07-06T06:12:20.892Z,21.90
2018-07-06T06:14:50.224Z,22.00
2018-07-06T06:17:18.560Z,22.00
2018-07-06T06:19:46.752Z,22.00
2018-07-06T06:22:15.065Z,22.00
2018-07-06T06:24:43.304Z,22.10
2018-07-06T06:27:11.572Z,22.10
2018-07-06T06:29:39.934Z,22.20
2018-07-06T06:32:09.136Z,22.30
2018-07-06T06:34:37.384Z,22.40
2018-07-06T06:37:05.690Z,22.40
2018-07-06T06:42:02.575Z,22.50
2018-07-06T06:44:30.969Z,22.50
2018-07-06T06:46:59.964Z,22.50
2018-07-06T06:49:29.497Z,22.50
2018-07-06T06:51:57.872Z,22.60
2018-07-06T06:54:26.339Z,22.70
2018-07-06T06:56:54.694Z,22.70
2018-07-06T06:59:23.411Z,22.80
2018-07-06T07:01:51.705Z,22.80
2018-07-06T07:04:20.304Z,22.80
2018-07-06T07:06:48.552Z,22.80
2018-07-06T07:09:16.856Z,22.70
2018-07-06T07:11:45.179Z,22.60
2018-07-06T07:14:13.441Z,22.70
2018-07-06T07:16:41.760Z,22.70
2018-07-06T07:19:10.033Z,22.90
2018-07-06T07:21:38.384Z,22.90
2018-07-06T07:24:06.661Z,22.90
2018-07-06T07:26:34.878Z,23.00
2018-07-06T07:29:03.155Z,23.10
2018-07-06T07:31:31.423Z,23.10
2018-07-06T07:34:00.021Z,23.30
2018-07-06T07:36:28.293Z,23.30
2018-07-06T07:38:56.845Z,23.40
2018-07-06T07:41:25.100Z,23.50
2018-07-06T07:43:53.450Z,23.50
2018-07-06T07:46:21.733Z,23.50
2018-07-06T07:48:50.008Z,23.50
2018-07-06T07:51:59.160Z,23.60
2018-07-06T07:54:32.581Z,23.70
2018-07-06T07:57:02.025Z,23.70
2018-07-06T07:59:32.219Z,23.70
2018-07-06T08:02:01.466Z,23.80
2018-07-06T08:04:30.474Z,23.80
2018-07-06T08:06:58.900Z,23.80
2018-07-06T08:09:27.515Z,23.80
2018-07-06T08:11:57.312Z,23.90
2018-07-06T08:14:25.940Z,24.00
2018-07-06T08:16:54.182Z,24.00
2018-07-06T08:19:22.742Z,24.00
2018-07-06T08:21:51.290Z,24.00
2018-07-06T08:24:20.265Z,24.00
2018-07-06T08:26:48.731Z,24.10
2018-07-06T08:29:17.017Z,24.10
2018-07-06T08:31:45.729Z,24.10
2018-07-06T08:34:25.285Z,24.10
2018-07-06T08:37:42.435Z,24.20
2018-07-06T08:40:10.902Z,24.30
2018-07-06T08:42:41.103Z,24.30
2018-07-06T08:45:09.721Z,24.30
2018-07-06T08:47:38.076Z,24.30
2018-07-06T08:50:07.069Z,24.40
2018-07-06T08:52:36.390Z,24.50
2018-07-06T08:55:04.943Z,24.50
2018-07-06T08:57:34.243Z,24.50
2018-07-06T09:00:02.493Z,24.50
2018-07-06T09:02:30.830Z,24.60
2018-07-06T09:05:00.088Z,24.60
2018-07-06T09:07:28.422Z,24.70
2018-07-06T09:09:57.491Z,24.80
2018-07-06T09:12:25.794Z,24.80
2018-07-06T09:14:54.455Z,24.90
2018-07-06T09:17:23.090Z,25.10
2018-07-06T09:19:52.484Z,25.20
2018-07-06T09:22:20.638Z,25.30
2018-07-06T09:24:50.420Z,25.40
2018-07-06T09:27:18.728Z,25.60
2018-07-06T09:29:47.011Z,25.70
2018-07-06T09:32:15.431Z,25.80
2018-07-06T09:34:43.778Z,26.10
2018-07-06T09:37:12.080Z,26.50
2018-07-06T09:39:41.958Z,26.80
2018-07-06T09:42:10.245Z,27.10
2018-07-06T09:44:38.567Z,27.60
2018-07-06T09:47:06.880Z,28.10
2018-07-06T09:49:35.199Z,28.40
2018-07-06T09:52:03.541Z,28.80
2018-07-06T09:54:32.119Z,29.20
2018-07-06T09:57:00.450Z,29.60
2018-07-06T09:59:28.760Z,30.10
2018-07-06T10:04:25.039Z,30.60
2018-07-06T10:06:53.328Z,30.60
2018-07-06T10:09:21.605Z,30.50
2018-07-06T10:11:49.896Z,30.10
2018-07-06T10:14:18.625Z,29.50
2018-07-06T10:16:46.954Z,29.00
2018-07-06T10:19:15.293Z,28.70
2018-07-06T10:21:43.533Z,28.40
2018-07-06T10:24:11.871Z,28.10
2018-07-06T10:26:40.137Z,27.90
2018-07-06T10:30:19.843Z,27.60
2018-07-06T10:32:48.109Z,27.30
2018-07-06T10:35:16.422Z,26.90
2018-07-06T10:37:44.659Z,26.70
2018-07-06T10:40:13.007Z,26.60
2018-07-06T10:42:41.208Z,26.60
2018-07-06T10:45:09.455Z,26.50
2018-07-06T10:47:37.778Z,26.50
2018-07-06T10:50:06.081Z,26.50
2018-07-06T10:52:34.326Z,26.50
2018-07-06T10:55:02.597Z,26.40
2018-07-06T10:57:30.885Z,26.30
2018-07-06T10:59:59.176Z,26.30
2018-07-06T11:02:28.265Z,26.20
2018-07-06T11:04:56.581Z,26.20
2018-07-06T11:07:24.823Z,26.20
2018-07-06T11:09:53.234Z,26.20
2018-07-06T11:12:21.536Z,26.30
2018-07-06T11:14:49.761Z,26.20
2018-07-06T11:17:18.167Z,26.20
2018-07-06T11:19:46.448Z,26.10
2018-07-06T11:22:14.764Z,26.10
2018-07-06T11:24:43.072Z,26.10
2018-07-06T11:27:11.370Z,26.00
2018-07-06T11:29:39.789Z,26.10
2018-07-06T11:32:08.142Z,26.00
2018-07-06T11:34:36.456Z,26.10
2018-07-06T11:37:04.969Z,26.10
2018-07-06T11:39:33.343Z,26.20
2018-07-06T11:42:01.604Z,26.20
2018-07-06T11:44:29.894Z,26.20
2018-07-06T11:46:58.223Z,26.10
2018-07-06T11:49:26.556Z,26.10
2018-07-06T11:51:54.936Z,26.20
2018-07-06T11:54:23.783Z,26.20
2018-07-06T11:56:52.141Z,26.20
2018-07-06T11:59:20.404Z,26.30
2018-07-06T12:01:48.729Z,26.30
2018-07-06T12:04:17.154Z,26.40
2018-07-06T12:06:45.738Z,26.40
2018-07-06T12:09:14.265Z,26.50
2018-07-06T12:11:42.787Z,26.60
2018-07-06T12:14:11.140Z,26.60
2018-07-06T12:16:39.419Z,26.60
2018-07-06T12:19:07.740Z,26.60
2018-07-06T12:21:36.067Z,26.60
2018-07-06T12:26:32.466Z,26.80
2018-07-06T12:29:00.745Z,26.80
2018-07-06T12:31:29.021Z,26.60
2018-07-06T12:33:57.270Z,26.70
2018-07-06T12:36:25.526Z,26.70
2018-07-06T12:38:54.170Z,26.80
2018-07-06T12:41:22.451Z,26.80
2018-07-06T12:43:50.734Z,26.90
2018-07-06T12:46:19.733Z,26.90
2018-07-06T12:48:48.277Z,27.00
2018-07-06T12:51:16.616Z,27.10
2018-07-06T12:53:44.810Z,27.10
2018-07-06T12:56:13.012Z,27.00
2018-07-06T12:58:41.416Z,27.00
2018-07-06T13:01:09.547Z,27.00
2018-07-06T13:03:37.861Z,27.10
2018-07-06T13:06:06.178Z,27.10
2018-07-06T13:08:34.435Z,27.20
2018-07-06T13:11:02.643Z,27.20
2018-07-06T13:13:30.939Z,27.20
2018-07-06T13:15:59.330Z,27.20
2018-07-06T13:18:27.603Z,27.20
2018-07-06T13:20:56.058Z,27.10
2018-07-06T13:23:25.410Z,27.20
2018-07-06T13:25:53.724Z,27.20
2018-07-06T13:28:22.066Z,27.10
2018-07-06T13:30:50.338Z,27.10
2018-07-06T13:33:18.716Z,27.00
2018-07-06T13:35:47.034Z,27.10
2018-07-06T13:38:15.333Z,27.10
2018-07-06T13:40:43.615Z,27.10
2018-07-06T13:43:11.897Z,27.00
2018-07-06T13:45:40.171Z,27.10
2018-07-06T13:48:08.417Z,27.10
2018-07-06T13:50:36.738Z,27.20
2018-07-06T13:53:05.167Z,27.30
2018-07-06T13:55:33.434Z,27.20
2018-07-06T13:58:01.749Z,27.20
2018-07-06T14:00:31.082Z,27.20
2018-07-06T14:02:59.348Z,27.30
2018-07-06T14:05:27.679Z,27.30
2018-07-06T14:07:55.998Z,27.20
2018-07-06T14:10:24.471Z,27.30
2018-07-06T14:12:52.801Z,27.40
2018-07-06T14:15:21.112Z,27.40
2018-07-06T14:17:49.446Z,27.50
2018-07-06T14:20:17.736Z,27.50
2018-07-06T14:22:46.002Z,27.60
2018-07-06T14:25:14.395Z,27.60
2018-07-06T14:27:42.647Z,27.60
2018-07-06T14:30:10.948Z,27.70
2018-07-06T14:32:39.209Z,27.70
2018-07-06T14:35:07.639Z,27.80
2018-07-06T14:37:37.286Z,27.90
2018-07-06T14:40:05.557Z,27.90
2018-07-06T14:42:33.918Z,27.90
2018-07-06T14:45:02.254Z,27.90
2018-07-06T14:47:30.488Z,28.10
2018-07-06T14:49:58.760Z,28.10
2018-07-06T14:52:27.566Z,28.10
2018-07-06T14:54:55.879Z,27.90
2018-07-06T14:57:24.164Z,27.90
2018-07-06T14:59:52.456Z,27.90
2018-07-06T15:02:20.782Z,27.90
2018-07-06T15:04:49.097Z,28.00
2018-07-06T15:07:17.380Z,28.10
2018-07-06T15:09:45.604Z,28.10
2018-07-06T15:12:13.859Z,28.00
2018-07-06T15:14:42.139Z,27.80
2018-07-06T15:17:10.504Z,27.80
2018-07-06T15:19:39.037Z,27.60
2018-07-06T15:22:07.430Z,27.60
2018-07-06T15:24:36.700Z,27.60
2018-07-06T15:27:05.137Z,27.50
2018-07-06T15:29:33.387Z,27.50
2018-07-06T15:32:01.801Z,27.50
2018-07-06T15:34:30.055Z,27.50
2018-07-06T15:36:58.334Z,27.50
2018-07-06T15:39:26.557Z,27.60
2018-07-06T15:41:54.836Z,27.70
2018-07-06T15:44:23.182Z,27.70
2018-07-06T15:46:51.597Z,27.80
2018-07-06T15:49:19.865Z,27.80
2018-07-06T15:51:48.157Z,27.90
2018-07-06T15:54:16.476Z,27.80
2018-07-06T15:56:44.774Z,27.80
2018-07-06T15:59:13.070Z,27.80
2018-07-06T16:01:41.377Z,27.90
2018-07-06T16:04:09.725Z,28.00
2018-07-06T16:06:38.518Z,28.10
2018-07-06T16:09:06.833Z,28.00
2018-07-06T16:11:35.106Z,28.00
2018-07-06T16:14:03.991Z,28.00
2018-07-06T16:19:00.265Z,28.00
2018-07-06T16:21:28.598Z,28.00
2018-07-06T16:23:56.903Z,28.00
2018-07-06T16:26:25.186Z,28.00
2018-07-06T16:28:53.431Z,27.90
2018-07-06T16:31:21.779Z,27.90
2018-07-06T16:33:50.097Z,27.90
2018-07-06T16:36:18.446Z,27.70
2018-07-06T16:38:46.718Z,27.80
2018-07-06T16:41:15.018Z,27.70
2018-07-06T16:43:44.401Z,27.70
2018-07-06T16:46:12.784Z,27.70
2018-07-06T16:48:41.014Z,27.70
2018-07-06T16:51:09.304Z,27.80
2018-07-06T16:53:37.680Z,27.70
2018-07-06T16:56:05.998Z,27.70
2018-07-06T16:58:34.322Z,27.60
2018-07-06T17:01:02.643Z,27.60
2018-07-06T17:03:30.844Z,27.50
2018-07-06T17:05:59.157Z,27.40
2018-07-06T17:08:27.638Z,27.40
2018-07-06T17:10:55.959Z,27.40
2018-07-06T17:13:24.221Z,27.40
2018-07-06T17:15:52.945Z,27.50
2018-07-06T17:18:21.397Z,27.40
2018-07-06T17:20:49.821Z,27.30
2018-07-06T17:23:18.139Z,27.30
2018-07-06T17:25:46.412Z,27.30
2018-07-06T17:28:14.755Z,27.30
2018-07-06T17:30:43.132Z,27.20
2018-07-06T17:33:11.472Z,27.20
2018-07-06T17:35:40.222Z,27.20
2018-07-06T17:38:08.584Z,27.20
2018-07-06T17:40:36.841Z,27.30
2018-07-06T17:43:05.124Z,27.30
2018-07-06T17:45:33.411Z,27.30
2018-07-06T17:48:01.716Z,27.20
2018-07-06T17:50:30.097Z,27.20
2018-07-06T17:52:58.355Z,27.20
2018-07-06T17:55:26.654Z,27.20
2018-07-06T17:57:54.969Z,27.10
2018-07-06T18:00:23.295Z,27.00
2018-07-06T18:02:51.595Z,27.00
2018-07-06T18:05:19.882Z,26.90
2018-07-06T18:07:48.161Z,26.90
2018-07-06T18:10:16.450Z,26.90
2018-07-06T18:12:44.796Z,26.80
2018-07-06T18:15:14.560Z,26.80
2018-07-06T18:17:43.412Z,26.60
2018-07-06T18:20:11.699Z,26.50
2018-07-06T18:22:39.977Z,26.40
2018-07-06T18:25:08.348Z,26.30
2018-07-06T18:27:36.660Z,26.40
2018-07-06T18:30:04.971Z,26.20
2018-07-06T18:32:33.232Z,26.20
2018-07-06T18:35:01.532Z,26.20
2018-07-06T18:37:29.887Z,26.10
2018-07-06T18:39:58.135Z,26.10
2018-07-06T18:42:26.432Z,26.10
2018-07-06T18:44:54.765Z,26.10
2018-07-06T18:47:23.142Z,26.00
2018-07-06T18:49:51.564Z,26.00
2018-07-06T18:52:20.187Z,25.90
2018-07-06T18:54:48.638Z,25.90
2018-07-06T18:57:16.852Z,25.80
2018-07-06T18:59:45.167Z,25.70
2018-07-06T19:02:13.550Z,25.60
2018-07-06T19:04:41.827Z,25.60
2018-07-06T19:07:10.069Z,25.50
2018-07-06T19:09:38.406Z,25.50
2018-07-06T19:12:06.797Z,25.50
2018-07-06T19:14:35.114Z,25.40
2018-07-06T19:17:03.390Z,25.50
2018-07-06T19:19:31.694Z,25.50
2018-07-06T19:21:59.943Z,25.50
2018-07-06T19:24:28.171Z,25.50
2018-07-06T19:26:56.508Z,25.50
2018-07-06T19:29:26.520Z,25.50
2018-07-06T19:31:55.183Z,25.40
2018-07-06T19:34:23.544Z,25.40
2018-07-06T19:36:51.770Z,25.40
2018-07-06T19:39:20.128Z,25.40
2018-07-06T19:41:48.541Z,25.40
2018-07-06T19:44:16.885Z,25.30
2018-07-06T19:46:45.451Z,25.30
2018-07-06T19:49:13.695Z,25.30
2018-07-06T19:51:42.118Z,25.30
2018-07-06T19:54:10.319Z,25.20
2018-07-06T19:56:38.655Z,25.20
2018-07-06T19:59:06.890Z,25.10
2018-07-06T20:01:35.125Z,25.10
2018-07-06T20:04:03.653Z,25.10
2018-07-06T20:06:33.178Z,25.10
2018-07-06T20:09:01.496Z,25.00
2018-07-06T20:11:29.807Z,25.00
2018-07-06T20:13:58.108Z,25.00
2018-07-06T20:16:26.677Z,24.90
2018-07-06T20:18:54.931Z,24.90
2018-07-06T20:21:23.283Z,24.80
2018-07-06T20:23:51.592Z,24.80
2018-07-06T20:26:19.924Z,24.70
2018-07-06T20:28:48.541Z,24.70
2018-07-06T20:31:16.842Z,24.60
2018-07-06T20:33:45.121Z,24.60
2018-07-06T20:36:13.558Z,24.50
2018-07-06T20:38:41.812Z,24.50
2018-07-06T20:41:10.102Z,24.50
2018-07-06T20:43:38.512Z,24.40
2018-07-06T20:46:06.829Z,24.40
2018-07-06T20:48:35.118Z,24.30
2018-07-06T20:51:03.474Z,24.30
2018-07-06T20:53:31.840Z,24.30
2018-07-06T20:56:00.121Z,24.20
2018-07-06T20:58:28.359Z,24.20
2018-07-06T21:00:56.635Z,24.10
2018-07-06T21:03:24.904Z,24.00
2018-07-06T21:05:53.209Z,24.00
2018-07-06T21:08:21.475Z,24.00
2018-07-06T21:13:17.674Z,23.90
2018-07-06T21:15:45.949Z,23.90
2018-07-06T21:18:14.292Z,23.80
2018-07-06T21:20:43.272Z,23.80
2018-07-06T21:23:11.574Z,23.70
2018-07-06T21:25:40.491Z,23.70
2018-07-06T21:28:08.743Z,23.60
2018-07-06T21:30:37.104Z,23.60
2018-07-06T21:33:05.568Z,23.50
2018-07-06T21:35:33.833Z,23.50
2018-07-06T21:38:02.091Z,23.50
2018-07-06T21:40:30.374Z,23.40
2018-07-06T21:42:58.925Z,23.40
2018-07-06T21:45:27.228Z,23.40
2018-07-06T21:47:55.473Z,23.30
2018-07-06T21:50:23.777Z,23.30
2018-07-06T21:52:52.369Z,23.30
2018-07-06T21:57:48.733Z,23.20
2018-07-06T22:00:18.728Z,23.20
2018-07-06T22:02:47.072Z,23.20
2018-07-06T22:05:15.313Z,23.10
2018-07-06T22:07:43.618Z,23.10
2018-07-06T22:10:11.921Z,23.10
2018-07-06T22:12:40.205Z,23.00
2018-07-06T22:15:08.526Z,23.00
2018-07-06T22:17:36.804Z,23.00
2018-07-06T22:20:05.705Z,22.90
2018-07-06T22:22:33.965Z,22.90
2018-07-06T22:25:02.140Z,22.90
2018-07-06T22:27:30.409Z,22.90
2018-07-06T22:29:58.825Z,22.90
2018-07-06T22:32:27.187Z,22.80
2018-07-06T22:34:55.363Z,22.80
2018-07-06T22:37:23.577Z,22.70
2018-07-06T22:39:51.779Z,22.70
2018-07-06T22:42:20.071Z,22.70
2018-07-06T22:44:48.347Z,22.70
2018-07-06T22:47:16.607Z,22.60
2018-07-06T22:49:44.838Z,22.60
2018-07-06T22:52:13.046Z,22.50
2018-07-06T22:54:41.307Z,22.50
2018-07-06T22:57:09.625Z,22.40
2018-07-06T22:59:37.871Z,22.40
2018-07-06T23:02:06.475Z,22.40
2018-07-06T23:04:34.715Z,22.30
2018-07-06T23:07:03.036Z,22.30
2018-07-06T23:09:31.291Z,22.30
2018-07-06T23:11:59.504Z,22.20
2018-07-06T23:16:55.821Z,22.20
2018-07-06T23:19:24.012Z,22.10
2018-07-06T23:21:52.296Z,22.10
2018-07-06T23:24:20.533Z,22.00
2018-07-06T23:26:48.793Z,22.00
2018-07-06T23:29:17.072Z,21.90
2018-07-06T23:31:45.251Z,21.90
2018-07-06T23:36:41.565Z,21.80
2018-07-06T23:39:10.019Z,21.80
2018-07-06T23:41:38.251Z,21.80
2018-07-06T23:44:06.837Z,21.70
2018-07-06T23:46:35.151Z,21.70
2018-07-06T23:49:03.442Z,21.70
2018-07-06T23:51:31.678Z,21.70
2018-07-06T23:53:59.915Z,21.60
2018-07-06T23:56:28.129Z,21.60
2018-07-06T23:58:56.420Z,21.60
